Time;durP1;ratioP1;P1;durP2;ratioP2;P2;SDS_P1;SDS_P2;PMS_P1;PMS_P2;Temp;Humidity;BMP_temperature;BMP_pressure;BME280_temperature;BME280_humidity;BME280_pressure;Samples;Min_cycle;Max_cycle;Signal;HPM_P1;HPM_P2
2022/06/17 00:00:53;;;;;;;6.57;3.20;;;15.30;99.90;;;;;;5006583;28;20068;-78
2022/06/17 00:03:19;;;;;;;6.13;3.28;;;15.30;99.90;;;;;;5021915;28;20099;-79
2022/06/17 00:05:46;;;;;;;6.53;3.50;;;15.30;99.90;;;;;;4986872;28;20547;-79
2022/06/17 00:08:37;;;;;;;6.07;3.90;;;15.30;99.90;;;;;;5011829;28;20034;-78
2022/06/17 00:11:09;;;;;;;6.55;4.03;;;15.30;99.90;;;;;;5008212;28;20050;-79
2022/06/17 00:13:35;;;;;;;6.78;4.43;;;15.30;99.90;;;;;;5006757;28;20048;-78
2022/06/17 00:16:09;;;;;;;7.10;4.35;;;15.30;99.90;;;;;;4987041;28;20056;-79
2022/06/17 00:18:35;;;;;;;6.78;4.45;;;15.30;99.90;;;;;;5018384;28;20128;-78
2022/06/17 00:21:03;;;;;;;7.38;4.13;;;15.30;99.90;;;;;;4998985;28;20125;-78
2022/06/17 00:23:29;;;;;;;6.40;4.03;;;15.30;99.90;;;;;;4998149;28;20072;-79
2022/06/17 00:25:55;;;;;;;6.50;4.20;;;15.30;99.90;;;;;;5002568;28;20112;-79
2022/06/17 00:28:23;;;;;;;9.35;4.60;;;15.20;99.90;;;;;;5012041;28;20038;-79
2022/06/17 00:30:50;;;;;;;6.50;4.07;;;15.20;99.90;;;;;;4997264;28;20093;-79
2022/06/17 00:33:18;;;;;;;8.18;3.80;;;15.30;99.90;;;;;;5015266;28;20124;-78
2022/06/17 00:35:50;;;;;;;7.03;4.13;;;15.20;99.90;;;;;;4982470;28;20065;-78
2022/06/17 00:38:21;;;;;;;7.43;3.75;;;15.20;99.90;;;;;;5014710;28;20048;-79
2022/06/17 00:40:47;;;;;;;7.97;4.78;;;15.20;99.90;;;;;;5008600;28;20480;-78
2022/06/17 00:43:24;;;;;;;7.07;4.43;;;15.10;99.90;;;;;;5006514;28;20045;-78
2022/06/17 00:45:58;;;;;;;8.60;4.20;;;15.10;99.90;;;;;;4995273;28;20038;-78
2022/06/17 00:48:31;;;;;;;6.90;3.83;;;15.00;99.90;;;;;;4992053;28;20042;-79
2022/06/17 00:51:05;;;;;;;6.60;4.15;;;15.00;99.90;;;;;;5013524;28;20037;-79
2022/06/17 00:53:56;;;;;;;6.80;4.07;;;15.00;99.90;;;;;;4998436;28;20046;-78
2022/06/17 00:56:42;;;;;;;7.10;4.30;;;15.00;99.90;;;;;;5004264;28;20561;-78
2022/06/17 00:59:16;;;;;;;7.22;4.70;;;15.00;99.90;;;;;;5000519;28;20496;-79
2022/06/17 01:01:58;;;;;;;6.63;4.72;;;15.00;99.90;;;;;;5014431;28;20069;-78
2022/06/17 01:04:27;;;;;;;8.25;5.75;;;15.00;99.90;;;;;;5014376;28;20540;-78
2022/06/17 01:07:03;;;;;;;7.97;5.20;;;15.00;99.90;;;;;;5012859;28;20050;-79
2022/06/17 01:12:22;;;;;;;6.72;5.00;;;14.90;99.90;;;;;;5013932;28;20042;-79
2022/06/17 01:14:48;;;;;;;8.00;4.63;;;14.90;99.90;;;;;;5014136;28;20050;-79
2022/06/17 01:17:16;;;;;;;9.55;4.95;;;14.90;99.90;;;;;;4985993;28;20133;-78
2022/06/17 01:19:51;;;;;;;7.90;4.70;;;14.80;99.90;;;;;;5009489;28;20038;-79
2022/06/17 01:22:26;;;;;;;7.93;4.47;;;14.80;99.90;;;;;;4989751;28;20554;-79
2022/06/17 01:25:11;;;;;;;8.07;4.38;;;14.70;99.90;;;;;;4997419;28;20103;-79
2022/06/17 01:27:42;;;;;;;7.90;4.20;;;14.70;99.90;;;;;;4993997;28;20133;-78
2022/06/17 01:30:11;;;;;;;6.68;4.35;;;14.80;99.90;;;;;;5007669;28;20603;-79
2022/06/17 01:32:47;;;;;;;8.52;4.10;;;14.80;99.90;;;;;;5007871;28;20547;-79
2022/06/17 01:35:13;;;;;;;7.70;3.97;;;14.80;99.90;;;;;;5013512;28;20045;-79
2022/06/17 01:37:39;;;;;;;6.20;4.13;;;14.70;99.90;;;;;;4996861;28;20100;-79
2022/06/17 01:40:07;;;;;;;7.45;4.20;;;14.70;99.90;;;;;;4991798;28;20037;-79
2022/06/17 01:42:35;;;;;;;7.57;4.20;;;14.70;99.90;;;;;;5013895;28;20516;-79
2022/06/17 01:45:01;;;;;;;7.53;4.30;;;14.70;99.90;;;;;;4996935;28;20042;-78
2022/06/17 01:47:30;;;;;;;7.15;4.00;;;14.70;99.90;;;;;;5013162;28;20091;-79
2022/06/17 01:50:05;;;;;;;7.32;4.43;;;14.60;99.90;;;;;;5000113;28;20033;-79
2022/06/17 01:52:40;;;;;;;7.22;4.45;;;14.60;99.90;;;;;;5013455;28;20480;-79
2022/06/17 01:55:20;;;;;;;6.82;4.15;;;14.60;99.90;;;;;;5003987;28;20168;-79
2022/06/17 01:58:11;;;;;;;6.45;4.10;;;14.60;99.90;;;;;;5013512;28;20042;-79
2022/06/17 02:00:36;;;;;;;6.38;4.03;;;14.60;99.90;;;;;;5013027;28;20080;-79
2022/06/17 02:03:07;;;;;;;6.55;4.13;;;14.60;99.90;;;;;;4996681;28;20069;-79
2022/06/17 02:05:34;;;;;;;5.47;3.80;;;14.60;99.90;;;;;;5012621;28;20069;-78
2022/06/17 02:08:02;;;;;;;6.28;3.90;;;14.50;99.90;;;;;;4996658;28;20048;-79
2022/06/17 02:10:37;;;;;;;6.13;3.90;;;14.50;99.90;;;;;;4997351;28;20489;-79
2022/06/17 02:13:05;;;;;;;6.32;3.70;;;14.50;99.90;;;;;;5013424;28;20433;-79
2022/06/17 02:15:32;;;;;;;5.82;3.80;;;14.40;99.90;;;;;;5012500;28;20037;-79
2022/06/17 02:17:59;;;;;;;9.15;5.82;;;14.40;99.90;;;;;;4982028;28;20050;-79
2022/06/17 02:20:26;;;;;;;8.52;5.68;;;14.30;99.90;;;;;;4980384;28;20042;-79
2022/06/17 02:22:53;;;;;;;8.65;5.63;;;14.20;99.90;;;;;;4979973;28;20029;-79
2022/06/17 02:25:22;;;;;;;8.80;6.22;;;14.10;99.90;;;;;;5013026;28;20484;-79
2022/06/17 02:27:53;;;;;;;8.55;5.70;;;14.10;99.90;;;;;;4996141;28;20504;-79
2022/06/17 02:30:20;;;;;;;8.68;5.03;;;14.00;99.90;;;;;;4998642;28;20064;-79
2022/06/17 02:32:47;;;;;;;10.88;7.10;;;13.90;99.90;;;;;;5010029;28;20120;-79
2022/06/17 02:35:22;;;;;;;10.57;6.90;;;13.90;99.90;;;;;;4965861;28;20132;-79
2022/06/17 02:37:47;;;;;;;10.02;6.88;;;13.90;99.90;;;;;;4995637;28;20119;-79
2022/06/17 02:40:30;;;;;;;11.55;6.90;;;13.90;99.90;;;;;;5010851;28;20097;-79
2022/06/17 02:42:59;;;;;;;9.85;6.75;;;13.90;99.90;;;;;;5012328;28;20034;-79
2022/06/17 02:45:29;;;;;;;10.95;6.90;;;13.90;99.90;;;;;;5012332;28;20046;-78
2022/06/17 02:47:54;;;;;;;11.00;6.53;;;13.90;99.90;;;;;;5012670;28;20603;-78
2022/06/17 02:50:25;;;;;;;9.73;6.68;;;14.00;99.90;;;;;;4995261;28;20124;-79
2022/06/17 02:52:52;;;;;;;11.43;6.80;;;14.00;99.90;;;;;;4999219;28;20042;-79
2022/06/17 02:55:39;;;;;;;9.77;6.47;;;14.00;99.90;;;;;;4996150;28;20392;-78
2022/06/17 02:58:13;;;;;;;11.05;6.00;;;13.90;99.90;;;;;;4993052;28;20042;-79
2022/06/17 03:00:40;;;;;;;11.10;6.03;;;13.90;99.90;;;;;;5007177;28;20038;-78
2022/06/17 03:03:10;;;;;;;7.82;5.93;;;13.90;99.90;;;;;;4960588;28;20031;-79
2022/06/17 03:05:41;;;;;;;9.75;6.60;;;13.90;99.90;;;;;;5012137;28;20562;-79
2022/06/17 03:08:16;;;;;;;9.95;6.75;;;13.90;99.90;;;;;;4998814;28;20048;-79
2022/06/17 03:10:42;;;;;;;10.15;6.93;;;13.90;99.90;;;;;;5012131;28;20053;-79
2022/06/17 03:13:12;;;;;;;11.07;6.68;;;13.90;99.90;;;;;;4979680;28;20037;-78
2022/06/17 03:15:43;;;;;;;11.93;6.20;;;14.00;99.90;;;;;;4999837;28;20043;-79
2022/06/17 03:18:10;;;;;;;9.80;6.30;;;14.00;99.90;;;;;;5010485;28;20041;-78
2022/06/17 03:20:37;;;;;;;10.52;6.78;;;14.00;99.90;;;;;;5012141;28;20087;-78
2022/06/17 03:23:09;;;;;;;9.90;5.82;;;14.00;99.90;;;;;;4995572;28;20033;-79
2022/06/17 03:26:07;;;;;;;9.80;6.22;;;13.90;99.90;;;;;;5000921;28;20077;-78
2022/06/17 03:28:40;;;;;;;10.27;6.35;;;13.90;99.90;;;;;;4987401;28;20054;-78
2022/06/17 03:31:22;;;;;;;9.27;5.97;;;13.90;99.90;;;;;;4995667;28;20037;-79
2022/06/17 03:33:57;;;;;;;10.23;6.10;;;13.90;99.90;;;;;;5003153;28;20492;-78
2022/06/17 03:36:31;;;;;;;8.98;5.40;;;14.00;99.90;;;;;;5014507;28;20049;-78
2022/06/17 03:39:00;;;;;;;8.15;5.35;;;14.00;99.90;;;;;;5014885;28;20492;-78
2022/06/17 03:41:34;;;;;;;9.57;6.15;;;13.90;99.90;;;;;;4998576;28;20495;-78
2022/06/17 03:44:16;;;;;;;9.32;5.88;;;14.00;99.90;;;;;;5015132;28;20041;-77
2022/06/17 03:46:49;;;;;;;8.70;5.93;;;14.10;99.90;;;;;;4998291;28;20488;-79
2022/06/17 03:49:27;;;;;;;7.90;5.60;;;14.30;99.90;;;;;;5014907;28;20037;-78
2022/06/17 03:51:59;;;;;;;7.38;4.90;;;14.30;99.90;;;;;;4995756;28;20140;-78
2022/06/17 03:54:25;;;;;;;9.88;6.00;;;14.30;99.90;;;;;;5004539;28;20029;-78
2022/06/17 03:56:53;;;;;;;8.48;5.78;;;14.30;99.90;;;;;;5014308;28;20087;-79
2022/06/17 03:59:23;;;;;;;7.70;4.75;;;14.30;99.90;;;;;;5008035;28;20044;-78
2022/06/17 04:01:58;;;;;;;9.40;5.50;;;14.30;99.90;;;;;;5008685;28;20107;-79
2022/06/17 04:04:31;;;;;;;9.52;5.90;;;14.40;99.90;;;;;;5014902;28;20507;-78
2022/06/17 04:06:58;;;;;;;9.20;5.70;;;14.40;99.90;;;;;;5010923;28;20054;-78
2022/06/17 04:09:32;;;;;;;8.85;5.35;;;14.40;99.90;;;;;;5014603;28;20071;-78
2022/06/17 04:12:04;;;;;;;9.15;5.93;;;14.50;99.90;;;;;;4998280;28;20042;-78
2022/06/17 04:14:52;;;;;;;10.07;5.90;;;14.60;99.90;;;;;;5001902;28;20504;-78
2022/06/17 04:17:40;;;;;;;7.80;5.78;;;14.60;99.90;;;;;;4984462;28;20128;-78
2022/06/17 04:20:36;;;;;;;9.30;5.70;;;14.80;99.90;;;;;;5014142;28;20128;-78
2022/06/17 04:23:26;;;;;;;10.82;6.05;;;14.80;99.90;;;;;;5018561;28;20485;-78
2022/06/17 04:26:30;;;;;;;10.90;6.35;;;14.80;99.90;;;;;;4994948;28;20046;-79
2022/06/17 04:29:00;;;;;;;10.80;6.10;;;14.90;99.90;;;;;;5011318;28;20517;-78
2022/06/17 04:31:28;;;;;;;10.65;6.45;;;15.00;99.90;;;;;;4991644;28;20046;-78
2022/06/17 04:34:05;;;;;;;11.95;6.53;;;15.00;99.90;;;;;;4999643;28;20050;-79
2022/06/17 04:36:35;;;;;;;10.45;6.88;;;15.10;99.90;;;;;;4999944;28;20069;-79
2022/06/17 04:39:06;;;;;;;11.77;6.78;;;15.20;99.90;;;;;;4999325;28;20045;-79
2022/06/17 04:41:36;;;;;;;16.40;7.43;;;15.30;99.90;;;;;;5021170;28;20056;-79
2022/06/17 04:44:05;;;;;;;12.80;7.10;;;15.40;99.90;;;;;;5005076;28;20037;-78
2022/06/17 04:46:35;;;;;;;11.98;7.50;;;15.50;99.90;;;;;;4986898;28;20855;-79
2022/06/17 04:49:02;;;;;;;13.18;7.40;;;15.50;99.90;;;;;;4999462;28;20562;-79
2022/06/17 04:51:29;;;;;;;13.70;8.05;;;15.60;99.90;;;;;;5005125;28;20038;-79
2022/06/17 04:53:56;;;;;;;13.43;8.75;;;15.60;99.90;;;;;;5000110;28;20063;-79
2022/06/17 04:56:30;;;;;;;13.93;8.65;;;15.70;99.90;;;;;;5001564;28;20131;-79
2022/06/17 04:58:57;;;;;;;10.13;7.10;;;15.80;99.90;;;;;;5001147;28;20094;-79
2022/06/17 05:01:24;;;;;;;12.65;7.93;;;15.90;99.90;;;;;;5014458;28;20526;-79
2022/06/17 05:03:53;;;;;;;10.63;7.90;;;15.90;99.90;;;;;;4997581;28;20158;-79
2022/06/17 05:06:19;;;;;;;11.20;7.90;;;15.90;99.90;;;;;;5001067;28;20384;-79
2022/06/17 05:09:01;;;;;;;13.40;8.13;;;16.00;99.90;;;;;;5015548;28;20034;-79
2022/06/17 05:11:32;;;;;;;10.95;8.27;;;16.00;99.90;;;;;;5001229;28;20109;-79
2022/06/17 05:14:13;;;;;;;11.98;8.43;;;16.00;99.90;;;;;;5005913;28;20049;-79
2022/06/17 05:16:39;;;;;;;12.98;9.20;;;16.10;99.90;;;;;;5016054;28;20048;-79
2022/06/17 05:19:04;;;;;;;12.60;8.68;;;16.10;99.90;;;;;;5002277;28;20053;-79
2022/06/17 05:21:30;;;;;;;12.32;9.10;;;16.10;99.90;;;;;;5011824;28;20480;-79
2022/06/17 05:23:58;;;;;;;9.98;8.43;;;16.10;99.90;;;;;;4995719;28;20048;-79
2022/06/17 05:26:24;;;;;;;12.32;8.38;;;16.10;99.90;;;;;;5003045;28;20069;-79
2022/06/17 05:28:50;;;;;;;12.15;8.43;;;16.20;99.90;;;;;;4998157;28;20092;-79
2022/06/17 05:31:22;;;;;;;11.65;8.43;;;16.30;99.90;;;;;;5011565;28;20499;-79
2022/06/17 05:33:48;;;;;;;12.25;8.57;;;16.30;99.90;;;;;;5012541;28;20087;-79
2022/06/17 05:36:15;;;;;;;11.38;8.38;;;16.40;99.90;;;;;;4999692;28;20045;-79
2022/06/17 05:38:42;;;;;;;11.70;8.32;;;16.50;99.90;;;;;;5010722;28;20096;-79
2022/06/17 05:41:15;;;;;;;11.70;8.00;;;16.50;99.90;;;;;;5005075;28;20037;-79
2022/06/17 05:43:41;;;;;;;11.57;8.30;;;16.70;99.90;;;;;;5015569;28;20103;-79
2022/06/17 05:46:07;;;;;;;11.55;7.88;;;16.70;99.90;;;;;;4985209;28;20447;-79
2022/06/17 05:48:33;;;;;;;10.80;7.75;;;16.80;99.90;;;;;;5016549;28;20460;-79
2022/06/17 05:50:59;;;;;;;11.30;8.15;;;16.90;99.90;;;;;;4999463;28;20073;-79
2022/06/17 05:53:25;;;;;;;10.93;7.53;;;16.90;99.90;;;;;;4995811;28;20121;-79
2022/06/17 05:55:50;;;;;;;10.45;7.45;;;17.00;99.90;;;;;;4975066;28;20034;-79
2022/06/17 05:58:17;;;;;;;10.77;6.88;;;17.00;99.90;;;;;;4980775;28;20042;-77
2022/06/17 06:00:43;;;;;;;10.43;7.05;;;17.10;99.90;;;;;;5008698;28;20041;-77
2022/06/17 06:03:17;;;;;;;10.45;7.00;;;17.00;99.90;;;;;;5007436;28;20042;-77
2022/06/17 06:05:43;;;;;;;12.27;6.75;;;17.10;99.90;;;;;;5014426;28;20455;-78
2022/06/17 06:08:08;;;;;;;11.02;6.82;;;17.10;99.90;;;;;;5013401;28;20125;-78
2022/06/17 06:10:35;;;;;;;10.10;6.63;;;17.20;99.90;;;;;;4999183;28;20083;-78
2022/06/17 06:13:03;;;;;;;9.63;6.35;;;17.20;99.90;;;;;;4981976;28;20034;-78
2022/06/17 06:15:38;;;;;;;10.43;6.80;;;17.30;99.90;;;;;;4981738;28;20072;-78
2022/06/17 06:18:04;;;;;;;11.15;6.82;;;17.30;99.90;;;;;;5026694;28;20068;-78
2022/06/17 06:20:30;;;;;;;10.60;6.35;;;17.40;99.90;;;;;;5008246;28;20041;-78
2022/06/17 06:22:56;;;;;;;10.90;7.03;;;17.40;99.90;;;;;;5001857;28;20034;-79
2022/06/17 06:25:22;;;;;;;11.00;6.93;;;17.40;99.90;;;;;;4971807;28;20029;-78
2022/06/17 06:27:48;;;;;;;9.48;7.00;;;17.40;99.90;;;;;;5016304;28;20125;-79
2022/06/17 06:30:29;;;;;;;10.82;7.40;;;17.50;99.90;;;;;;5010212;28;20116;-78
2022/06/17 06:33:00;;;;;;;11.20;7.30;;;17.50;99.90;;;;;;5000158;28;20037;-79
2022/06/17 06:35:29;;;;;;;10.18;7.20;;;17.60;99.90;;;;;;5016070;28;20145;-79
2022/06/17 06:37:55;;;;;;;10.18;6.78;;;17.60;99.90;;;;;;4999324;28;20037;-78
2022/06/17 06:40:21;;;;;;;10.85;7.05;;;17.60;99.90;;;;;;5015390;28;20403;-78
2022/06/17 06:42:49;;;;;;;9.57;7.15;;;17.70;99.90;;;;;;5015776;28;20435;-79
2022/06/17 06:45:22;;;;;;;10.95;7.35;;;17.70;99.90;;;;;;5015516;28;20045;-78
2022/06/17 06:47:49;;;;;;;9.88;7.10;;;17.70;99.90;;;;;;4999238;28;20132;-78
2022/06/17 06:50:19;;;;;;;11.73;7.18;;;17.80;99.90;;;;;;5015383;28;20033;-78
2022/06/17 06:52:45;;;;;;;11.88;7.50;;;17.90;99.90;;;;;;5021594;28;20038;-79
2022/06/17 06:55:12;;;;;;;10.90;7.45;;;17.90;99.90;;;;;;5018168;28;20103;-79
2022/06/17 06:57:44;;;;;;;11.63;7.13;;;18.00;99.90;;;;;;5003527;28;20120;-78
2022/06/17 07:00:12;;;;;;;;;;;18.10;99.90;;;;;;4983291;28;20091;-79
2022/06/17 07:02:38;;;;;;;10.25;6.97;;;18.20;99.90;;;;;;4998681;28;19963;-78
2022/06/17 07:05:04;;;;;;;10.80;7.07;;;18.30;99.90;;;;;;5015002;28;20509;-78
2022/06/17 07:07:30;;;;;;;11.18;7.60;;;18.40;99.90;;;;;;5014319;28;20108;-78
2022/06/17 07:09:56;;;;;;;11.60;7.68;;;18.70;99.90;;;;;;4997613;28;20488;-79
2022/06/17 07:12:21;;;;;;;11.52;7.13;;;19.20;99.90;;;;;;4994854;28;20034;-79
2022/06/17 07:14:47;;;;;;;11.32;6.65;;;19.80;99.90;;;;;;5008294;28;20518;-79
2022/06/17 07:17:14;;;;;;;9.40;6.57;;;20.20;99.90;;;;;;4993411;28;20108;-78
2022/06/17 07:19:40;;;;;;;11.38;6.75;;;20.40;99.90;;;;;;4998243;28;20045;-79
2022/06/17 07:22:05;;;;;;;10.50;6.15;;;20.40;99.90;;;;;;5012178;28;20092;-79
2022/06/17 07:24:31;;;;;;;10.65;6.40;;;20.40;98.80;;;;;;5008591;28;20049;-79
2022/06/17 07:26:57;;;;;;;9.93;6.00;;;20.40;99.90;;;;;;5004249;28;20073;-78
2022/06/17 07:29:23;;;;;;;9.15;5.63;;;20.60;99.80;;;;;;4977251;28;20409;-78
2022/06/17 07:31:49;;;;;;;9.15;4.82;;;21.00;99.20;;;;;;4990916;28;20042;-79
2022/06/17 07:34:14;;;;;;;8.48;5.30;;;21.30;98.30;;;;;;4990632;28;20095;-79
2022/06/17 07:42:09;;;;;;;8.82;4.90;;;22.10;95.60;;;;;;5006969;28;20041;-79
2022/06/17 07:44:36;;;;;;;8.00;4.80;;;22.40;94.80;;;;;;5007020;28;20046;-79
2022/06/17 07:47:03;;;;;;;7.70;4.65;;;22.50;95.50;;;;;;5001228;28;20048;-79
2022/06/17 07:49:29;;;;;;;8.20;4.57;;;22.70;94.80;;;;;;5007321;28;20048;-79
2022/06/17 07:51:55;;;;;;;7.72;4.72;;;22.80;93.90;;;;;;5005698;28;20489;-80
2022/06/17 07:54:21;;;;;;;8.50;4.80;;;23.00;93.30;;;;;;5005062;28;20030;-79
2022/06/17 07:56:46;;;;;;;7.97;5.20;;;23.10;93.10;;;;;;5004890;28;20037;-79
2022/06/17 07:59:12;;;;;;;7.07;4.32;;;23.10;91.40;;;;;;5004339;28;20042;-80
2022/06/17 08:01:38;;;;;;;9.35;5.10;;;23.30;90.50;;;;;;4986039;28;20128;-80
2022/06/17 08:04:04;;;;;;;9.63;4.80;;;23.30;88.70;;;;;;4988658;28;20041;-79
2022/06/17 08:06:29;;;;;;;9.35;4.57;;;23.40;90.80;;;;;;5002243;28;20039;-80
2022/06/17 08:08:55;;;;;;;8.32;4.70;;;23.70;92.00;;;;;;5002183;28;20492;-79
2022/06/17 08:11:21;;;;;;;7.50;4.65;;;24.20;90.60;;;;;;4997648;28;20374;-79
2022/06/17 08:13:49;;;;;;;8.70;4.93;;;24.40;89.30;;;;;;5005050;28;20037;-79
2022/06/17 08:16:15;;;;;;;8.35;4.90;;;24.70;88.40;;;;;;5009618;28;20056;-79
2022/06/17 08:18:42;;;;;;;7.70;4.32;;;25.10;84.00;;;;;;4993758;28;20054;-79
2022/06/17 08:21:10;;;;;;;8.55;4.57;;;25.40;81.00;;;;;;4989530;28;20038;-79
2022/06/17 08:23:36;;;;;;;7.85;4.57;;;25.40;73.20;;;;;;5009269;28;20077;-79
2022/06/17 08:26:03;;;;;;;7.82;4.43;;;25.30;71.80;;;;;;5008371;28;20116;-78
2022/06/17 08:28:29;;;;;;;8.35;4.03;;;25.00;69.20;;;;;;4976463;28;20116;-79
2022/06/17 08:30:56;;;;;;;8.13;4.38;;;25.00;75.10;;;;;;5006968;28;20496;-79
2022/06/17 08:33:29;;;;;;;8.65;4.20;;;24.80;75.30;;;;;;4986590;28;20042;-79
2022/06/17 08:36:22;;;;;;;8.60;4.13;;;24.80;77.70;;;;;;5010146;28;20046;-79
2022/06/17 08:38:59;;;;;;;8.25;4.10;;;25.00;78.50;;;;;;5022850;28;20042;-79
2022/06/17 08:41:29;;;;;;;8.38;4.13;;;25.30;74.10;;;;;;5008000;28;20048;-79
2022/06/17 08:44:23;;;;;;;7.63;3.88;;;25.30;75.60;;;;;;5002029;28;20074;-79
2022/06/17 08:47:03;;;;;;;8.68;4.03;;;25.50;73.30;;;;;;5013843;28;20480;-78
2022/06/17 08:49:49;;;;;;;6.97;3.92;;;25.70;71.10;;;;;;5015243;28;20396;-79
2022/06/17 08:52:52;;;;;;;8.18;4.30;;;26.20;71.10;;;;;;5008512;28;20046;-79
2022/06/17 08:55:39;;;;;;;8.75;4.00;;;26.60;69.10;;;;;;5008456;28;20480;-78
2022/06/17 08:58:20;;;;;;;8.32;3.97;;;26.70;66.00;;;;;;4995260;28;20121;-78
2022/06/17 09:00:49;;;;;;;8.23;4.20;;;27.10;66.00;;;;;;4993864;28;20034;-79
2022/06/17 09:03:35;;;;;;;8.43;4.55;;;27.10;64.50;;;;;;4995639;28;20799;-79
2022/06/17 09:06:20;;;;;;;35.28;5.38;;;27.10;62.00;;;;;;5013512;28;20057;-79
2022/06/17 09:09:07;;;;;;;8.15;4.20;;;26.90;63.30;;;;;;5013629;28;20038;-79
2022/06/17 09:11:44;;;;;;;8.07;3.58;;;26.70;65.40;;;;;;5014168;28;20045;-78
2022/06/17 09:14:15;;;;;;;8.02;3.60;;;26.60;61.40;;;;;;5014038;28;20029;-78
2022/06/17 09:17:00;;;;;;;;;;;26.40;66.00;;;;;;4998423;28;20128;-79
2022/06/17 09:19:35;;;;;;;7.10;3.20;;;26.30;63.20;;;;;;4997496;28;19924;-79
2022/06/17 09:22:16;;;;;;;8.73;3.60;;;26.10;67.00;;;;;;4997100;28;20045;-79
2022/06/17 09:24:44;;;;;;;6.35;3.28;;;26.20;67.60;;;;;;4981523;28;20493;-79
2022/06/17 09:27:28;;;;;;;8.65;3.40;;;26.00;66.00;;;;;;5017727;28;20582;-79
2022/06/17 09:30:00;;;;;;;6.95;3.10;;;26.00;67.60;;;;;;4994907;28;20517;-79
2022/06/17 09:32:37;;;;;;;7.20;3.40;;;26.00;69.10;;;;;;4994935;28;20548;-79
2022/06/17 09:35:13;;;;;;;6.65;3.20;;;26.00;69.30;;;;;;5027449;28;20042;-79
2022/06/17 09:37:58;;;;;;;8.30;3.50;;;25.90;68.90;;;;;;4997502;28;20053;-79
2022/06/17 09:40:35;;;;;;;8.35;3.60;;;25.80;64.80;;;;;;4990577;28;20076;-79
2022/06/17 09:43:12;;;;;;;7.93;3.42;;;25.60;65.90;;;;;;5010422;28;20038;-79
2022/06/17 09:45:44;;;;;;;7.78;3.45;;;25.60;64.90;;;;;;4983730;28;20721;-79
2022/06/17 09:48:14;;;;;;;8.13;3.28;;;25.50;66.60;;;;;;5011096;28;20096;-79
2022/06/17 09:50:56;;;;;;;8.70;4.33;;;25.40;68.90;;;;;;5004735;28;20042;-80
2022/06/17 09:53:33;;;;;;;9.57;4.20;;;25.50;69.30;;;;;;5004768;28;20336;-79
2022/06/17 09:56:09;;;;;;;8.68;3.65;;;25.40;66.20;;;;;;4997608;28;20038;-79
2022/06/17 09:58:49;;;;;;;7.97;3.63;;;25.50;69.30;;;;;;5006290;28;20045;-79
2022/06/17 10:01:15;;;;;;;8.93;3.50;;;25.70;67.40;;;;;;5007006;28;20037;-79
2022/06/17 10:03:41;;;;;;;9.68;3.95;;;25.90;68.30;;;;;;5000719;28;20073;-78
2022/06/17 10:06:13;;;;;;;7.63;3.67;;;25.80;65.00;;;;;;5008032;28;20042;-81
2022/06/17 10:08:46;;;;;;;;;;;25.80;66.20;;;;;;4989303;28;20520;-80
2022/06/17 10:11:12;;;;;;;7.57;3.50;;;25.90;67.50;;;;;;5002949;28;19921;-80
2022/06/17 10:14:36;;;;;;;8.65;4.00;;;26.00;67.40;;;;;;5003495;28;20443;-80
2022/06/17 10:20:08;;;;;;;8.85;3.40;;;26.10;65.00;;;;;;5005664;28;20432;-80
2022/06/17 10:22:44;;;;;;;8.50;3.17;;;26.10;63.70;;;;;;5000023;28;20131;-84
2022/06/17 10:25:44;;;;;;;9.40;3.55;;;26.10;64.40;;;;;;4991611;28;20038;-80
2022/06/17 10:28:51;;;;;;;7.97;3.15;;;25.90;65.70;;;;;;4988742;28;20042;-81
2022/06/17 10:31:39;;;;;;;7.25;3.00;;;26.00;67.30;;;;;;4969871;28;20046;-80
2022/06/17 10:34:32;;;;;;;10.52;3.70;;;26.00;65.60;;;;;;5008348;28;20030;-80
2022/06/17 10:37:01;;;;;;;9.57;3.30;;;26.00;64.60;;;;;;4986359;28;20046;-80
2022/06/17 10:39:28;;;;;;;9.63;3.80;;;25.80;66.10;;;;;;4991315;28;20522;-80
2022/06/17 10:41:57;;;;;;;9.25;3.35;;;25.90;66.30;;;;;;4975111;28;20049;-80
2022/06/17 10:44:25;;;;;;;9.63;3.60;;;25.90;65.90;;;;;;4989214;28;20045;-80
2022/06/17 10:47:29;;;;;;;16.98;4.13;;;25.90;64.80;;;;;;4983713;28;20045;-80
2022/06/17 10:49:59;;;;;;;8.35;3.60;;;25.90;64.50;;;;;;4976638;28;20047;-80
2022/06/17 10:52:32;;;;;;;9.82;3.60;;;25.80;65.50;;;;;;4990694;28;20045;-80
2022/06/17 10:55:01;;;;;;;8.10;3.45;;;25.80;67.00;;;;;;4967497;28;20039;-80
2022/06/17 10:57:37;;;;;;;8.07;3.83;;;25.80;65.10;;;;;;4990815;28;20046;-80
2022/06/17 11:00:25;;;;;;;11.18;4.15;;;25.80;66.40;;;;;;4967744;28;20440;-80
2022/06/17 11:02:51;;;;;;;8.98;4.15;;;25.80;66.30;;;;;;4988804;28;20110;-80
2022/06/17 11:05:31;;;;;;;7.82;3.63;;;25.80;67.10;;;;;;4972937;28;20035;-80
2022/06/17 11:07:57;;;;;;;8.80;3.83;;;25.90;65.30;;;;;;4983472;28;20485;-81
2022/06/17 11:10:29;;;;;;;8.52;3.83;;;26.00;66.00;;;;;;4971533;28;20049;-82
2022/06/17 11:13:02;;;;;;;9.88;3.65;;;26.00;65.60;;;;;;4970164;28;20125;-82
2022/06/17 11:15:36;;;;;;;8.68;3.75;;;26.20;66.70;;;;;;4974282;28;20125;-83
2022/06/17 11:18:08;;;;;;;12.07;4.85;;;26.20;66.60;;;;;;4990941;28;20049;-83
2022/06/17 11:20:37;;;;;;;8.95;3.95;;;26.30;64.50;;;;;;4972015;28;20063;-84
2022/06/17 11:23:16;;;;;;;9.70;3.88;;;26.30;66.70;;;;;;4976827;28;20042;-83
2022/06/17 11:25:43;;;;;;;6.95;3.50;;;26.40;68.10;;;;;;4975741;28;20046;-83
2022/06/17 11:28:20;;;;;;;9.60;3.65;;;26.50;66.00;;;;;;4997088;28;20085;-82
2022/06/17 11:31:29;;;;;;;8.85;3.70;;;26.60;66.20;;;;;;4994807;28;20344;-82
2022/06/17 11:33:54;;;;;;;10.55;3.60;;;26.70;62.90;;;;;;5012024;28;20036;-83
2022/06/17 11:36:27;;;;;;;8.75;3.75;;;26.60;63.40;;;;;;5009107;28;20037;-82
2022/06/17 11:38:53;;;;;;;8.20;3.35;;;26.70;63.30;;;;;;4994385;28;20049;-82
2022/06/17 11:41:31;;;;;;;7.95;3.65;;;26.60;63.90;;;;;;5013295;28;20037;-82
2022/06/17 11:44:07;;;;;;;8.82;3.70;;;26.50;60.90;;;;;;5025726;28;20034;-82
2022/06/17 11:46:35;;;;;;;9.00;3.83;;;26.50;60.60;;;;;;4992588;28;20124;-82
2022/06/17 11:49:09;;;;;;;9.68;3.80;;;26.40;59.50;;;;;;5006092;28;20056;-82
2022/06/17 11:51:39;;;;;;;8.25;3.72;;;26.30;61.20;;;;;;5008261;28;20041;-82
2022/06/17 11:54:09;;;;;;;6.20;3.10;;;26.20;61.80;;;;;;5028391;28;20040;-82
2022/06/17 11:56:39;;;;;;;7.30;3.50;;;26.20;63.10;;;;;;5009052;28;20163;-82
2022/06/17 11:59:25;;;;;;;7.82;3.65;;;26.30;63.20;;;;;;5011710;28;20569;-83
2022/06/17 12:01:53;;;;;;;9.50;3.63;;;26.40;62.20;;;;;;5010659;28;20042;-82
2022/06/17 12:05:14;;;;;;;8.25;3.60;;;26.50;60.60;;;;;;4995214;28;20056;-82
2022/06/17 12:07:58;;;;;;;7.03;3.40;;;26.50;62.00;;;;;;5006086;28;20532;-82
2022/06/17 12:10:27;;;;;;;7.68;3.50;;;26.50;62.70;;;;;;5010714;28;20111;-82
2022/06/17 12:12:57;;;;;;;8.73;3.33;;;26.50;60.70;;;;;;5014795;28;20495;-82
2022/06/17 12:15:31;;;;;;;7.10;3.22;;;26.60;61.60;;;;;;5003595;28;20041;-82
2022/06/17 12:17:59;;;;;;;5.68;2.85;;;26.70;58.00;;;;;;5007177;28;20117;-82
2022/06/17 12:20:31;;;;;;;7.40;3.00;;;26.80;59.60;;;;;;5006992;28;20040;-83
2022/06/17 12:22:59;;;;;;;;;;;27.00;58.70;;;;;;5010068;28;20516;-82
2022/06/17 12:25:44;;;;;;;6.45;3.05;;;27.20;56.00;;;;;;4992673;28;19917;-82
2022/06/17 12:28:35;;;;;;;8.05;2.70;;;27.20;56.70;;;;;;4988688;28;20045;-82
2022/06/17 12:31:07;;;;;;;7.10;2.70;;;27.30;56.20;;;;;;5005053;28;20043;-81
2022/06/17 12:33:36;;;;;;;7.72;2.90;;;27.50;58.30;;;;;;5008071;28;20571;-81
2022/06/17 12:36:12;;;;;;;7.55;2.70;;;27.70;54.80;;;;;;4989173;28;20041;-83
2022/06/17 12:38:55;;;;;;;6.47;3.00;;;27.80;53.60;;;;;;5012763;28;20484;-83
2022/06/17 12:41:32;;;;;;;7.78;4.00;;;27.80;54.60;;;;;;5008509;28;20123;-82
2022/06/17 12:44:04;;;;;;;6.93;3.40;;;27.80;52.50;;;;;;5007460;28;20047;-83
2022/06/17 12:46:56;;;;;;;6.82;2.92;;;27.90;52.40;;;;;;5011078;28;20503;-82
2022/06/17 12:55:37;;;;;;;7.28;3.58;;;28.20;53.00;;;;;;5011159;28;20496;-83
2022/06/17 12:58:39;;;;;;;7.25;2.92;;;28.50;49.00;;;;;;5011992;28;20053;-84
2022/06/17 13:01:24;;;;;;;7.68;3.10;;;28.50;50.60;;;;;;5004037;28;20083;-83
2022/06/17 13:04:13;;;;;;;8.20;3.20;;;28.40;49.10;;;;;;4991585;28;20044;-84
2022/06/17 13:06:50;;;;;;;8.05;2.80;;;28.30;50.30;;;;;;5013125;28;20037;-83
2022/06/17 13:09:39;;;;;;;7.90;3.25;;;28.60;52.10;;;;;;5010787;28;20094;-83
2022/06/17 13:12:34;;;;;;;8.77;3.10;;;28.80;50.40;;;;;;5010221;28;20046;-83
2022/06/17 13:15:07;;;;;;;8.65;2.90;;;28.80;50.90;;;;;;5010893;28;20080;-84
2022/06/17 13:17:42;;;;;;;7.07;2.70;;;28.80;50.20;;;;;;5009699;28;20518;-83
2022/06/17 13:20:10;;;;;;;7.43;2.80;;;28.70;50.70;;;;;;5008125;28;20107;-84
2022/06/17 13:22:47;;;;;;;10.02;3.20;;;28.50;51.10;;;;;;5014375;28;20045;-84
2022/06/17 13:25:29;;;;;;;7.03;3.20;;;28.30;51.60;;;;;;5002774;28;20527;-83
2022/06/17 13:28:05;;;;;;;7.72;3.20;;;28.30;50.80;;;;;;5010046;28;20049;-83
2022/06/17 13:30:45;;;;;;;8.55;3.10;;;28.20;51.60;;;;;;5013074;28;20121;-83
2022/06/17 13:33:19;;;;;;;7.45;3.40;;;28.20;51.10;;;;;;4994199;28;20037;-83